42J

Keystone Airpark

Keystone Heights, Florida, USA
METAR K42J 161215Z AUTO 00000KT 9SM OVC042 11/11 A3013 RMK A01 TSNO
Observed Flight Rules
Dec-16 @ 12:15 UTC (30 minutes ago) Visual Flight Rules
Visibility Clouds
9 miles
  • Overcast at 4,200' AGL
Temperatures Readings
Current 11°C / 52°F
Dewpoint 11°C / 52°F
Humidity 100%
Altimeter 30.13" Hg
Pressure 1020 hPa
Elevation 60
METAR K42J 161215Z AUTO 00000KT 9SM OVC042 11/11 A3013 RMK A01 TSNO
Observed Flight Rules
Dec-16 @ 12:15 UTC
(30 minutes ago)
VFR
Clouds
  • Overcast at 4,200' AGL
Temperature Dewpoint
11°C / 52°F 11°C / 52°F
Humidity Altimeter Pressure
100% 30.13" Hg 1020 hPa